sensor_id;sensor_type;location;lat;lon;timestamp;P1;durP1;ratioP1;P2;durP2;ratioP2
72422;SDS011;60413;55.658;37.498;2022-12-19T00:01:37;8.98;;;3.80;;
72422;SDS011;60413;55.658;37.498;2022-12-19T00:04:05;6.65;;;3.42;;
72422;SDS011;60413;55.658;37.498;2022-12-19T00:06:35;5.05;;;2.45;;
72422;SDS011;60413;55.658;37.498;2022-12-19T00:09:50;5.15;;;1.92;;
72422;SDS011;60413;55.658;37.498;2022-12-19T00:18:28;11.80;;;4.00;;
72422;SDS011;60413;55.658;37.498;2022-12-19T00:22:18;7.90;;;3.40;;
72422;SDS011;60413;55.658;37.498;2022-12-19T00:27:43;9.20;;;3.47;;
72422;SDS011;60413;55.658;37.498;2022-12-19T00:30:12;4.47;;;2.42;;
72422;SDS011;60413;55.658;37.498;2022-12-19T00:33:02;10.43;;;3.78;;
72422;SDS011;60413;55.658;37.498;2022-12-19T00:35:28;11.18;;;3.92;;
72422;SDS011;60413;55.658;37.498;2022-12-19T00:37:55;10.70;;;3.97;;
72422;SDS011;60413;55.658;37.498;2022-12-19T00:40:30;10.23;;;3.72;;
72422;SDS011;60413;55.658;37.498;2022-12-19T00:42:58;11.40;;;3.92;;
72422;SDS011;60413;55.658;37.498;2022-12-19T00:45:24;10.15;;;3.63;;
72422;SDS011;60413;55.658;37.498;2022-12-19T00:47:51;9.07;;;3.83;;
72422;SDS011;60413;55.658;37.498;2022-12-19T00:50:19;12.13;;;4.53;;
72422;SDS011;60413;55.658;37.498;2022-12-19T00:52:46;11.95;;;3.60;;
72422;SDS011;60413;55.658;37.498;2022-12-19T00:55:12;14.23;;;4.47;;
72422;SDS011;60413;55.658;37.498;2022-12-19T00:57:39;11.18;;;4.15;;
72422;SDS011;60413;55.658;37.498;2022-12-19T01:00:06;5.75;;;2.85;;
72422;SDS011;60413;55.658;37.498;2022-12-19T01:06:22;10.65;;;4.88;;
72422;SDS011;60413;55.658;37.498;2022-12-19T01:08:49;13.15;;;3.67;;
72422;SDS011;60413;55.658;37.498;2022-12-19T01:11:15;10.88;;;4.15;;
72422;SDS011;60413;55.658;37.498;2022-12-19T01:13:41;12.98;;;4.32;;
72422;SDS011;60413;55.658;37.498;2022-12-19T01:16:11;9.38;;;3.85;;
72422;SDS011;60413;55.658;37.498;2022-12-19T01:18:37;10.65;;;4.30;;
72422;SDS011;60413;55.658;37.498;2022-12-19T01:21:05;13.48;;;4.60;;
72422;SDS011;60413;55.658;37.498;2022-12-19T01:23:34;13.45;;;4.97;;
72422;SDS011;60413;55.658;37.498;2022-12-19T01:26:01;8.70;;;3.80;;
72422;SDS011;60413;55.658;37.498;2022-12-19T01:28:27;8.88;;;3.67;;
72422;SDS011;60413;55.658;37.498;2022-12-19T01:30:54;12.23;;;4.15;;
72422;SDS011;60413;55.658;37.498;2022-12-19T01:33:20;14.45;;;4.40;;
72422;SDS011;60413;55.658;37.498;2022-12-19T01:35:46;10.98;;;3.70;;
72422;SDS011;60413;55.658;37.498;2022-12-19T01:38:14;8.18;;;3.83;;
72422;SDS011;60413;55.658;37.498;2022-12-19T01:40:49;13.77;;;5.35;;
72422;SDS011;60413;55.658;37.498;2022-12-19T01:43:20;11.52;;;4.47;;
72422;SDS011;60413;55.658;37.498;2022-12-19T01:45:58;13.13;;;4.18;;
72422;SDS011;60413;55.658;37.498;2022-12-19T01:48:34;12.40;;;4.28;;
72422;SDS011;60413;55.658;37.498;2022-12-19T01:51:04;10.68;;;4.13;;
72422;SDS011;60413;55.658;37.498;2022-12-19T01:56:30;11.88;;;4.88;;
72422;SDS011;60413;55.658;37.498;2022-12-19T01:58:59;10.23;;;3.63;;
72422;SDS011;60413;55.658;37.498;2022-12-19T02:01:29;8.48;;;3.63;;
72422;SDS011;60413;55.658;37.498;2022-12-19T02:03:56;11.43;;;3.88;;
72422;SDS011;60413;55.658;37.498;2022-12-19T02:06:24;15.65;;;4.57;;
72422;SDS011;60413;55.658;37.498;2022-12-19T02:08:52;10.60;;;4.13;;
72422;SDS011;60413;55.658;37.498;2022-12-19T02:11:18;17.60;;;5.63;;
72422;SDS011;60413;55.658;37.498;2022-12-19T02:13:45;13.18;;;4.97;;
72422;SDS011;60413;55.658;37.498;2022-12-19T02:16:30;13.13;;;4.93;;
72422;SDS011;60413;55.658;37.498;2022-12-19T02:33:22;13.18;;;5.38;;
72422;SDS011;60413;55.658;37.498;2022-12-19T02:36:03;9.73;;;4.63;;
72422;SDS011;60413;55.658;37.498;2022-12-19T02:38:58;10.00;;;3.83;;
72422;SDS011;60413;55.658;37.498;2022-12-19T02:41:33;12.27;;;5.07;;
72422;SDS011;60413;55.658;37.498;2022-12-19T02:44:22;13.32;;;4.78;;
72422;SDS011;60413;55.658;37.498;2022-12-19T02:46:58;10.80;;;4.47;;
72422;SDS011;60413;55.658;37.498;2022-12-19T02:49:34;13.23;;;4.82;;
72422;SDS011;60413;55.658;37.498;2022-12-19T02:52:08;10.95;;;4.63;;
72422;SDS011;60413;55.658;37.498;2022-12-19T02:54:52;12.10;;;4.85;;
72422;SDS011;60413;55.658;37.498;2022-12-19T02:57:28;10.10;;;4.45;;
72422;SDS011;60413;55.658;37.498;2022-12-19T03:00:03;11.68;;;4.70;;
72422;SDS011;60413;55.658;37.498;2022-12-19T03:13:55;11.00;;;3.53;;
72422;SDS011;60413;55.658;37.498;2022-12-19T03:16:25;10.60;;;4.35;;
72422;SDS011;60413;55.658;37.498;2022-12-19T03:18:54;12.25;;;4.28;;
72422;SDS011;60413;55.658;37.498;2022-12-19T03:21:24;12.52;;;4.25;;
72422;SDS011;60413;55.658;37.498;2022-12-19T03:23:54;10.88;;;3.95;;
72422;SDS011;60413;55.658;37.498;2022-12-19T03:26:22;10.75;;;4.28;;
72422;SDS011;60413;55.658;37.498;2022-12-19T03:31:37;15.63;;;5.72;;
72422;SDS011;60413;55.658;37.498;2022-12-19T03:34:12;14.50;;;4.93;;
72422;SDS011;60413;55.658;37.498;2022-12-19T03:36:44;14.90;;;4.70;;
72422;SDS011;60413;55.658;37.498;2022-12-19T03:39:13;9.10;;;4.22;;
72422;SDS011;60413;55.658;37.498;2022-12-19T03:41:41;10.15;;;4.10;;
72422;SDS011;60413;55.658;37.498;2022-12-19T03:44:27;16.27;;;4.70;;
72422;SDS011;60413;55.658;37.498;2022-12-19T03:46:58;14.38;;;5.55;;
72422;SDS011;60413;55.658;37.498;2022-12-19T03:49:30;14.43;;;5.60;;
72422;SDS011;60413;55.658;37.498;2022-12-19T03:52:01;15.48;;;5.07;;
72422;SDS011;60413;55.658;37.498;2022-12-19T03:54:40;10.60;;;4.45;;
72422;SDS011;60413;55.658;37.498;2022-12-19T03:57:22;20.10;;;4.95;;
72422;SDS011;60413;55.658;37.498;2022-12-19T04:00:18;11.05;;;4.32;;
72422;SDS011;60413;55.658;37.498;2022-12-19T04:02:46;13.13;;;4.38;;
72422;SDS011;60413;55.658;37.498;2022-12-19T04:05:16;14.38;;;4.60;;
72422;SDS011;60413;55.658;37.498;2022-12-19T04:07:45;14.73;;;5.03;;
72422;SDS011;60413;55.658;37.498;2022-12-19T04:10:14;11.95;;;5.38;;
72422;SDS011;60413;55.658;37.498;2022-12-19T04:12:47;8.63;;;4.32;;
72422;SDS011;60413;55.658;37.498;2022-12-19T04:15:28;13.23;;;4.57;;
72422;SDS011;60413;55.658;37.498;2022-12-19T04:18:04;12.60;;;4.47;;
72422;SDS011;60413;55.658;37.498;2022-12-19T04:20:34;10.52;;;4.20;;
72422;SDS011;60413;55.658;37.498;2022-12-19T04:23:20;14.38;;;4.40;;
72422;SDS011;60413;55.658;37.498;2022-12-19T04:25:53;14.20;;;3.65;;
72422;SDS011;60413;55.658;37.498;2022-12-19T04:28:25;13.18;;;4.28;;
72422;SDS011;60413;55.658;37.498;2022-12-19T04:31:10;9.88;;;3.72;;
72422;SDS011;60413;55.658;37.498;2022-12-19T04:33:40;13.75;;;4.75;;
72422;SDS011;60413;55.658;37.498;2022-12-19T04:36:10;11.55;;;4.22;;
72422;SDS011;60413;55.658;37.498;2022-12-19T04:38:40;14.25;;;5.15;;
72422;SDS011;60413;55.658;37.498;2022-12-19T04:41:07;11.75;;;4.05;;
72422;SDS011;60413;55.658;37.498;2022-12-19T04:44:02;9.57;;;4.22;;
72422;SDS011;60413;55.658;37.498;2022-12-19T04:46:31;10.00;;;4.10;;
72422;SDS011;60413;55.658;37.498;2022-12-19T04:48:57;11.32;;;4.20;;
72422;SDS011;60413;55.658;37.498;2022-12-19T04:51:24;8.45;;;3.15;;
72422;SDS011;60413;55.658;37.498;2022-12-19T04:53:50;12.27;;;4.10;;
72422;SDS011;60413;55.658;37.498;2022-12-19T04:56:16;13.13;;;4.03;;
72422;SDS011;60413;55.658;37.498;2022-12-19T04:58:42;12.45;;;4.28;;
72422;SDS011;60413;55.658;37.498;2022-12-19T05:01:09;9.43;;;4.10;;
72422;SDS011;60413;55.658;37.498;2022-12-19T05:03:47;14.93;;;3.67;;
72422;SDS011;60413;55.658;37.498;2022-12-19T05:06:13;9.32;;;2.95;;
72422;SDS011;60413;55.658;37.498;2022-12-19T05:08:42;12.10;;;4.53;;
72422;SDS011;60413;55.658;37.498;2022-12-19T05:11:12;10.77;;;3.55;;
72422;SDS011;60413;55.658;37.498;2022-12-19T05:13:42;10.73;;;3.53;;
72422;SDS011;60413;55.658;37.498;2022-12-19T05:16:09;12.85;;;4.30;;
72422;SDS011;60413;55.658;37.498;2022-12-19T05:18:36;15.80;;;5.32;;
72422;SDS011;60413;55.658;37.498;2022-12-19T05:21:03;14.50;;;4.68;;
72422;SDS011;60413;55.658;37.498;2022-12-19T05:23:31;10.27;;;4.25;;
72422;SDS011;60413;55.658;37.498;2022-12-19T05:26:00;13.00;;;3.83;;
72422;SDS011;60413;55.658;37.498;2022-12-19T05:28:35;14.10;;;5.13;;
72422;SDS011;60413;55.658;37.498;2022-12-19T05:31:09;12.77;;;5.00;;
72422;SDS011;60413;55.658;37.498;2022-12-19T05:36:22;10.75;;;4.43;;
72422;SDS011;60413;55.658;37.498;2022-12-19T05:38:48;10.32;;;4.07;;
72422;SDS011;60413;55.658;37.498;2022-12-19T05:41:27;11.40;;;4.10;;
72422;SDS011;60413;55.658;37.498;2022-12-19T05:43:54;14.88;;;4.57;;
72422;SDS011;60413;55.658;37.498;2022-12-19T05:46:26;12.10;;;5.03;;
72422;SDS011;60413;55.658;37.498;2022-12-19T05:49:34;13.73;;;4.85;;
72422;SDS011;60413;55.658;37.498;2022-12-19T05:52:06;11.48;;;3.65;;
72422;SDS011;60413;55.658;37.498;2022-12-19T05:54:34;16.33;;;4.95;;
72422;SDS011;60413;55.658;37.498;2022-12-19T05:57:00;11.32;;;4.25;;
72422;SDS011;60413;55.658;37.498;2022-12-19T05:59:29;11.23;;;4.45;;
72422;SDS011;60413;55.658;37.498;2022-12-19T06:01:55;10.93;;;4.43;;
72422;SDS011;60413;55.658;37.498;2022-12-19T06:04:21;11.07;;;4.47;;
72422;SDS011;60413;55.658;37.498;2022-12-19T06:06:52;13.98;;;4.88;;
72422;SDS011;60413;55.658;37.498;2022-12-19T06:09:27;14.35;;;4.45;;
72422;SDS011;60413;55.658;37.498;2022-12-19T06:11:55;14.02;;;4.75;;
72422;SDS011;60413;55.658;37.498;2022-12-19T06:15:46;10.32;;;3.88;;
72422;SDS011;60413;55.658;37.498;2022-12-19T06:18:14;8.30;;;2.92;;
72422;SDS011;60413;55.658;37.498;2022-12-19T06:20:41;11.32;;;4.32;;
72422;SDS011;60413;55.658;37.498;2022-12-19T06:23:21;14.38;;;4.70;;
72422;SDS011;60413;55.658;37.498;2022-12-19T06:26:08;12.35;;;4.13;;
72422;SDS011;60413;55.658;37.498;2022-12-19T06:28:45;10.02;;;3.38;;
72422;SDS011;60413;55.658;37.498;2022-12-19T06:31:18;19.58;;;4.35;;
72422;SDS011;60413;55.658;37.498;2022-12-19T06:33:54;12.23;;;4.63;;
72422;SDS011;60413;55.658;37.498;2022-12-19T06:36:21;10.35;;;3.92;;
72422;SDS011;60413;55.658;37.498;2022-12-19T06:38:52;11.90;;;4.32;;
72422;SDS011;60413;55.658;37.498;2022-12-19T06:41:22;14.13;;;3.88;;
72422;SDS011;60413;55.658;37.498;2022-12-19T06:44:20;8.02;;;3.50;;
72422;SDS011;60413;55.658;37.498;2022-12-19T06:46:53;11.63;;;4.37;;
72422;SDS011;60413;55.658;37.498;2022-12-19T06:49:32;11.27;;;4.20;;
72422;SDS011;60413;55.658;37.498;2022-12-19T06:52:01;12.20;;;4.13;;
72422;SDS011;60413;55.658;37.498;2022-12-19T06:54:38;10.45;;;4.63;;
72422;SDS011;60413;55.658;37.498;2022-12-19T06:57:07;10.35;;;3.65;;
72422;SDS011;60413;55.658;37.498;2022-12-19T06:59:33;13.95;;;4.68;;
72422;SDS011;60413;55.658;37.498;2022-12-19T07:04:56;12.05;;;4.13;;
72422;SDS011;60413;55.658;37.498;2022-12-19T07:07:40;13.43;;;5.10;;
72422;SDS011;60413;55.658;37.498;2022-12-19T07:10:14;12.00;;;4.43;;
72422;SDS011;60413;55.658;37.498;2022-12-19T07:12:40;13.43;;;4.97;;
72422;SDS011;60413;55.658;37.498;2022-12-19T07:15:27;15.27;;;5.32;;
72422;SDS011;60413;55.658;37.498;2022-12-19T07:18:01;10.20;;;4.07;;
72422;SDS011;60413;55.658;37.498;2022-12-19T07:20:37;13.38;;;4.60;;
72422;SDS011;60413;55.658;37.498;2022-12-19T07:23:10;12.18;;;4.45;;
72422;SDS011;60413;55.658;37.498;2022-12-19T07:25:53;11.60;;;4.85;;
72422;SDS011;60413;55.658;37.498;2022-12-19T07:28:31;13.63;;;4.93;;
72422;SDS011;60413;55.658;37.498;2022-12-19T07:31:02;15.00;;;5.22;;
72422;SDS011;60413;55.658;37.498;2022-12-19T07:33:28;10.80;;;5.05;;
72422;SDS011;60413;55.658;37.498;2022-12-19T07:35:58;14.20;;;5.82;;
72422;SDS011;60413;55.658;37.498;2022-12-19T07:38:24;11.27;;;4.60;;
72422;SDS011;60413;55.658;37.498;2022-12-19T07:40:50;15.10;;;5.57;;
72422;SDS011;60413;55.658;37.498;2022-12-19T07:43:38;13.20;;;5.65;;
72422;SDS011;60413;55.658;37.498;2022-12-19T07:46:06;9.85;;;4.43;;
72422;SDS011;60413;55.658;37.498;2022-12-19T07:59:19;20.33;;;5.75;;
72422;SDS011;60413;55.658;37.498;2022-12-19T08:01:46;13.52;;;5.13;;
72422;SDS011;60413;55.658;37.498;2022-12-19T08:04:12;12.48;;;4.88;;
72422;SDS011;60413;55.658;37.498;2022-12-19T08:06:41;16.20;;;4.88;;
72422;SDS011;60413;55.658;37.498;2022-12-19T08:09:07;13.23;;;5.55;;
72422;SDS011;60413;55.658;37.498;2022-12-19T08:11:33;15.18;;;5.65;;
72422;SDS011;60413;55.658;37.498;2022-12-19T08:13:58;15.75;;;5.22;;
72422;SDS011;60413;55.658;37.498;2022-12-19T08:16:25;14.50;;;5.90;;
72422;SDS011;60413;55.658;37.498;2022-12-19T08:18:52;14.68;;;5.63;;
72422;SDS011;60413;55.658;37.498;2022-12-19T08:21:18;11.77;;;4.68;;
72422;SDS011;60413;55.658;37.498;2022-12-19T08:23:44;12.88;;;4.97;;
72422;SDS011;60413;55.658;37.498;2022-12-19T08:26:13;12.57;;;5.10;;
72422;SDS011;60413;55.658;37.498;2022-12-19T08:28:40;13.23;;;5.32;;
72422;SDS011;60413;55.658;37.498;2022-12-19T08:31:20;13.90;;;5.75;;
72422;SDS011;60413;55.658;37.498;2022-12-19T08:33:49;18.08;;;6.20;;
72422;SDS011;60413;55.658;37.498;2022-12-19T08:36:28;14.23;;;4.78;;
72422;SDS011;60413;55.658;37.498;2022-12-19T08:38:57;14.60;;;5.80;;
72422;SDS011;60413;55.658;37.498;2022-12-19T08:41:22;14.05;;;5.07;;
72422;SDS011;60413;55.658;37.498;2022-12-19T08:43:49;13.00;;;5.32;;
72422;SDS011;60413;55.658;37.498;2022-12-19T08:46:18;13.13;;;5.07;;
72422;SDS011;60413;55.658;37.498;2022-12-19T08:48:45;12.75;;;6.07;;
72422;SDS011;60413;55.658;37.498;2022-12-19T08:51:12;13.50;;;5.15;;
72422;SDS011;60413;55.658;37.498;2022-12-19T08:53:40;17.90;;;5.57;;
72422;SDS011;60413;55.658;37.498;2022-12-19T08:56:09;13.60;;;5.40;;
72422;SDS011;60413;55.658;37.498;2022-12-19T08:58:37;14.57;;;6.32;;
72422;SDS011;60413;55.658;37.498;2022-12-19T09:01:07;14.40;;;5.05;;
72422;SDS011;60413;55.658;37.498;2022-12-19T09:03:43;14.95;;;4.50;;
72422;SDS011;60413;55.658;37.498;2022-12-19T09:06:10;16.00;;;5.22;;
72422;SDS011;60413;55.658;37.498;2022-12-19T09:08:37;13.93;;;4.78;;
72422;SDS011;60413;55.658;37.498;2022-12-19T09:11:06;13.32;;;5.53;;
72422;SDS011;60413;55.658;37.498;2022-12-19T09:13:35;13.88;;;5.65;;
72422;SDS011;60413;55.658;37.498;2022-12-19T09:18:34;20.27;;;5.53;;
72422;SDS011;60413;55.658;37.498;2022-12-19T09:21:00;13.85;;;5.00;;
72422;SDS011;60413;55.658;37.498;2022-12-19T09:23:27;15.23;;;5.47;;
72422;SDS011;60413;55.658;37.498;2022-12-19T09:25:54;10.90;;;4.97;;
72422;SDS011;60413;55.658;37.498;2022-12-19T09:30:58;10.60;;;4.88;;
72422;SDS011;60413;55.658;37.498;2022-12-19T09:33:25;16.35;;;5.60;;
72422;SDS011;60413;55.658;37.498;2022-12-19T09:35:52;11.85;;;5.13;;
72422;SDS011;60413;55.658;37.498;2022-12-19T09:38:19;12.07;;;4.70;;
72422;SDS011;60413;55.658;37.498;2022-12-19T09:41:08;13.07;;;5.07;;
72422;SDS011;60413;55.658;37.498;2022-12-19T09:46:59;13.32;;;5.50;;
72422;SDS011;60413;55.658;37.498;2022-12-19T09:49:28;14.40;;;5.15;;
72422;SDS011;60413;55.658;37.498;2022-12-19T09:52:03;14.38;;;6.15;;
72422;SDS011;60413;55.658;37.498;2022-12-19T09:54:46;15.05;;;5.82;;
72422;SDS011;60413;55.658;37.498;2022-12-19T09:57:23;16.88;;;6.38;;
72422;SDS011;60413;55.658;37.498;2022-12-19T10:00:15;15.88;;;5.30;;
72422;SDS011;60413;55.658;37.498;2022-12-19T10:02:47;12.57;;;5.22;;
72422;SDS011;60413;55.658;37.498;2022-12-19T10:05:24;14.68;;;6.13;;
72422;SDS011;60413;55.658;37.498;2022-12-19T10:08:14;10.52;;;5.32;;
72422;SDS011;60413;55.658;37.498;2022-12-19T10:10:52;14.77;;;5.70;;
72422;SDS011;60413;55.658;37.498;2022-12-19T10:13:34;15.50;;;5.50;;
72422;SDS011;60413;55.658;37.498;2022-12-19T10:17:03;13.35;;;4.70;;
72422;SDS011;60413;55.658;37.498;2022-12-19T10:19:34;14.63;;;6.22;;
72422;SDS011;60413;55.658;37.498;2022-12-19T10:22:12;19.55;;;6.38;;
72422;SDS011;60413;55.658;37.498;2022-12-19T10:27:46;12.27;;;4.20;;
72422;SDS011;60413;55.658;37.498;2022-12-19T10:30:42;17.50;;;6.97;;
72422;SDS011;60413;55.658;37.498;2022-12-19T10:33:17;13.15;;;5.63;;
72422;SDS011;60413;55.658;37.498;2022-12-19T10:35:45;14.02;;;5.60;;
72422;SDS011;60413;55.658;37.498;2022-12-19T10:40:51;15.90;;;5.78;;
72422;SDS011;60413;55.658;37.498;2022-12-19T10:46:10;15.63;;;6.00;;
72422;SDS011;60413;55.658;37.498;2022-12-19T10:48:58;13.25;;;4.95;;
72422;SDS011;60413;55.658;37.498;2022-12-19T10:51:26;14.05;;;5.68;;
72422;SDS011;60413;55.658;37.498;2022-12-19T10:53:56;17.10;;;5.95;;
72422;SDS011;60413;55.658;37.498;2022-12-19T10:56:28;17.23;;;5.93;;
72422;SDS011;60413;55.658;37.498;2022-12-19T10:58:55;22.33;;;6.97;;
72422;SDS011;60413;55.658;37.498;2022-12-19T11:01:34;15.35;;;6.50;;
72422;SDS011;60413;55.658;37.498;2022-12-19T11:09:42;15.20;;;5.95;;
72422;SDS011;60413;55.658;37.498;2022-12-19T11:12:12;18.15;;;6.03;;
72422;SDS011;60413;55.658;37.498;2022-12-19T11:14:41;16.90;;;6.88;;
72422;SDS011;60413;55.658;37.498;2022-12-19T11:17:24;19.13;;;6.57;;
72422;SDS011;60413;55.658;37.498;2022-12-19T11:19:58;22.20;;;7.20;;
72422;SDS011;60413;55.658;37.498;2022-12-19T11:22:38;16.90;;;6.43;;
72422;SDS011;60413;55.658;37.498;2022-12-19T11:25:14;19.23;;;7.20;;
72422;SDS011;60413;55.658;37.498;2022-12-19T11:27:45;14.48;;;5.25;;
72422;SDS011;60413;55.658;37.498;2022-12-19T11:32:42;17.40;;;6.28;;
72422;SDS011;60413;55.658;37.498;2022-12-19T11:35:23;16.58;;;6.47;;
72422;SDS011;60413;55.658;37.498;2022-12-19T11:40:27;23.27;;;7.72;;
72422;SDS011;60413;55.658;37.498;2022-12-19T11:43:09;18.98;;;7.10;;
72422;SDS011;60413;55.658;37.498;2022-12-19T11:56:37;17.48;;;6.60;;
72422;SDS011;60413;55.658;37.498;2022-12-19T12:02:16;14.25;;;5.45;;
72422;SDS011;60413;55.658;37.498;2022-12-19T12:05:47;17.88;;;5.75;;
72422;SDS011;60413;55.658;37.498;2022-12-19T12:31:41;19.70;;;7.45;;
72422;SDS011;60413;55.658;37.498;2022-12-19T12:46:03;19.80;;;7.25;;
72422;SDS011;60413;55.658;37.498;2022-12-19T12:48:42;18.05;;;7.38;;
72422;SDS011;60413;55.658;37.498;2022-12-19T12:51:14;18.05;;;7.63;;
72422;SDS011;60413;55.658;37.498;2022-12-19T12:53:43;21.73;;;8.10;;
72422;SDS011;60413;55.658;37.498;2022-12-19T12:56:11;17.13;;;7.85;;
72422;SDS011;60413;55.658;37.498;2022-12-19T13:01:20;16.85;;;6.45;;
72422;SDS011;60413;55.658;37.498;2022-12-19T13:11:45;20.48;;;8.18;;
72422;SDS011;60413;55.658;37.498;2022-12-19T13:19:56;15.50;;;7.45;;
72422;SDS011;60413;55.658;37.498;2022-12-19T13:23:04;23.02;;;6.78;;
72422;SDS011;60413;55.658;37.498;2022-12-19T13:39:28;23.92;;;8.63;;
72422;SDS011;60413;55.658;37.498;2022-12-19T13:42:10;17.77;;;7.00;;
72422;SDS011;60413;55.658;37.498;2022-12-19T13:45:02;18.95;;;6.93;;
72422;SDS011;60413;55.658;37.498;2022-12-19T13:47:34;15.48;;;6.68;;
72422;SDS011;60413;55.658;37.498;2022-12-19T13:50:05;16.13;;;7.05;;
72422;SDS011;60413;55.658;37.498;2022-12-19T13:52:40;22.63;;;7.88;;
72422;SDS011;60413;55.658;37.498;2022-12-19T13:55:11;19.98;;;7.30;;
72422;SDS011;60413;55.658;37.498;2022-12-19T13:57:38;20.70;;;7.45;;
72422;SDS011;60413;55.658;37.498;2022-12-19T14:00:08;17.92;;;7.85;;
72422;SDS011;60413;55.658;37.498;2022-12-19T14:02:54;19.50;;;6.05;;
72422;SDS011;60413;55.658;37.498;2022-12-19T14:05:28;17.08;;;7.20;;
72422;SDS011;60413;55.658;37.498;2022-12-19T14:08:03;20.08;;;8.30;;
72422;SDS011;60413;55.658;37.498;2022-12-19T14:10:31;18.58;;;6.80;;
72422;SDS011;60413;55.658;37.498;2022-12-19T14:13:09;26.55;;;7.90;;
72422;SDS011;60413;55.658;37.498;2022-12-19T14:16:02;13.13;;;4.93;;
72422;SDS011;60413;55.658;37.498;2022-12-19T14:18:29;18.75;;;7.70;;
72422;SDS011;60413;55.658;37.498;2022-12-19T14:23:37;21.35;;;8.30;;
72422;SDS011;60413;55.658;37.498;2022-12-19T14:26:29;22.53;;;8.83;;
72422;SDS011;60413;55.658;37.498;2022-12-19T14:29:34;20.90;;;8.35;;
72422;SDS011;60413;55.658;37.498;2022-12-19T14:31:59;16.42;;;7.47;;
72422;SDS011;60413;55.658;37.498;2022-12-19T14:34:43;25.65;;;7.13;;
72422;SDS011;60413;55.658;37.498;2022-12-19T14:37:28;18.23;;;7.70;;
72422;SDS011;60413;55.658;37.498;2022-12-19T14:40:27;18.92;;;6.88;;
72422;SDS011;60413;55.658;37.498;2022-12-19T14:43:03;22.25;;;7.93;;
72422;SDS011;60413;55.658;37.498;2022-12-19T14:46:09;16.63;;;8.00;;
72422;SDS011;60413;55.658;37.498;2022-12-19T14:48:51;21.73;;;7.75;;
72422;SDS011;60413;55.658;37.498;2022-12-19T14:51:35;18.15;;;7.63;;
72422;SDS011;60413;55.658;37.498;2022-12-19T15:05:03;17.95;;;7.93;;
72422;SDS011;60413;55.658;37.498;2022-12-19T15:07:34;28.08;;;8.88;;
72422;SDS011;60413;55.658;37.498;2022-12-19T15:13:01;19.08;;;9.05;;
72422;SDS011;60413;55.658;37.498;2022-12-19T15:15:53;18.45;;;6.85;;
72422;SDS011;60413;55.658;37.498;2022-12-19T15:20:58;20.05;;;8.65;;
72422;SDS011;60413;55.658;37.498;2022-12-19T15:23:26;21.13;;;8.43;;
72422;SDS011;60413;55.658;37.498;2022-12-19T15:25:59;22.90;;;9.18;;
72422;SDS011;60413;55.658;37.498;2022-12-19T15:34:44;22.00;;;7.75;;
72422;SDS011;60413;55.658;37.498;2022-12-19T15:36:53;20.90;;;7.57;;
72422;SDS011;60413;55.658;37.498;2022-12-19T15:39:20;20.25;;;8.32;;
72422;SDS011;60413;55.658;37.498;2022-12-19T15:41:47;16.60;;;7.05;;
72422;SDS011;60413;55.658;37.498;2022-12-19T15:44:27;18.60;;;7.45;;
72422;SDS011;60413;55.658;37.498;2022-12-19T15:46:57;19.73;;;7.03;;
72422;SDS011;60413;55.658;37.498;2022-12-19T15:49:23;14.77;;;6.40;;
72422;SDS011;60413;55.658;37.498;2022-12-19T15:51:57;18.55;;;7.20;;
72422;SDS011;60413;55.658;37.498;2022-12-19T15:54:28;19.92;;;8.82;;
72422;SDS011;60413;55.658;37.498;2022-12-19T15:56:54;20.38;;;7.45;;
72422;SDS011;60413;55.658;37.498;2022-12-19T15:59:29;19.08;;;8.23;;
72422;SDS011;60413;55.658;37.498;2022-12-19T16:01:58;21.15;;;7.78;;
72422;SDS011;60413;55.658;37.498;2022-12-19T16:04:26;22.48;;;7.78;;
72422;SDS011;60413;55.658;37.498;2022-12-19T16:06:52;24.88;;;8.70;;
72422;SDS011;60413;55.658;37.498;2022-12-19T16:11:52;23.48;;;8.35;;
72422;SDS011;60413;55.658;37.498;2022-12-19T16:14:21;16.77;;;7.07;;
72422;SDS011;60413;55.658;37.498;2022-12-19T16:16:55;20.65;;;7.97;;
72422;SDS011;60413;55.658;37.498;2022-12-19T16:20:40;19.75;;;7.70;;
72422;SDS011;60413;55.658;37.498;2022-12-19T16:44:53;23.80;;;8.15;;
72422;SDS011;60413;55.658;37.498;2022-12-19T16:47:22;21.15;;;7.80;;
72422;SDS011;60413;55.658;37.498;2022-12-19T16:54:10;17.90;;;6.65;;
72422;SDS011;60413;55.658;37.498;2022-12-19T17:00:42;21.63;;;5.55;;
72422;SDS011;60413;55.658;37.498;2022-12-19T17:06:04;18.88;;;7.10;;
72422;SDS011;60413;55.658;37.498;2022-12-19T17:09:38;17.17;;;6.75;;
72422;SDS011;60413;55.658;37.498;2022-12-19T17:12:04;18.23;;;6.47;;
72422;SDS011;60413;55.658;37.498;2022-12-19T17:14:35;16.88;;;6.38;;
72422;SDS011;60413;55.658;37.498;2022-12-19T17:17:01;16.15;;;6.50;;
72422;SDS011;60413;55.658;37.498;2022-12-19T17:19:41;15.60;;;7.20;;
72422;SDS011;60413;55.658;37.498;2022-12-19T17:22:21;15.48;;;5.90;;
72422;SDS011;60413;55.658;37.498;2022-12-19T17:24:54;19.30;;;6.57;;
72422;SDS011;60413;55.658;37.498;2022-12-19T17:27:30;18.70;;;6.18;;
72422;SDS011;60413;55.658;37.498;2022-12-19T17:29:56;18.33;;;6.22;;
72422;SDS011;60413;55.658;37.498;2022-12-19T17:40:31;17.10;;;6.57;;
72422;SDS011;60413;55.658;37.498;2022-12-19T17:43:32;16.50;;;5.78;;
72422;SDS011;60413;55.658;37.498;2022-12-19T17:45:58;11.77;;;5.78;;
72422;SDS011;60413;55.658;37.498;2022-12-19T17:48:53;14.23;;;5.50;;
72422;SDS011;60413;55.658;37.498;2022-12-19T17:51:26;16.80;;;6.25;;
72422;SDS011;60413;55.658;37.498;2022-12-19T17:54:02;14.55;;;5.47;;
72422;SDS011;60413;55.658;37.498;2022-12-19T17:56:30;15.95;;;5.90;;
72422;SDS011;60413;55.658;37.498;2022-12-19T17:58:59;13.75;;;5.90;;
72422;SDS011;60413;55.658;37.498;2022-12-19T18:01:45;12.93;;;5.30;;
72422;SDS011;60413;55.658;37.498;2022-12-19T18:04:12;16.63;;;5.53;;
72422;SDS011;60413;55.658;37.498;2022-12-19T18:06:43;16.00;;;6.22;;
72422;SDS011;60413;55.658;37.498;2022-12-19T18:09:22;15.45;;;6.03;;
72422;SDS011;60413;55.658;37.498;2022-12-19T18:11:51;14.07;;;5.93;;
72422;SDS011;60413;55.658;37.498;2022-12-19T18:14:18;13.85;;;5.65;;
72422;SDS011;60413;55.658;37.498;2022-12-19T18:16:49;15.38;;;5.93;;
72422;SDS011;60413;55.658;37.498;2022-12-19T18:22:13;16.90;;;6.18;;
72422;SDS011;60413;55.658;37.498;2022-12-19T18:24:46;12.05;;;5.13;;
72422;SDS011;60413;55.658;37.498;2022-12-19T18:27:12;14.20;;;4.78;;
72422;SDS011;60413;55.658;37.498;2022-12-19T18:29:41;14.73;;;5.30;;
72422;SDS011;60413;55.658;37.498;2022-12-19T18:32:18;16.13;;;5.80;;
72422;SDS011;60413;55.658;37.498;2022-12-19T18:35:16;15.90;;;6.05;;
72422;SDS011;60413;55.658;37.498;2022-12-19T18:41:07;12.65;;;5.03;;
72422;SDS011;60413;55.658;37.498;2022-12-19T18:43:45;13.27;;;5.38;;
72422;SDS011;60413;55.658;37.498;2022-12-19T18:46:25;14.77;;;5.03;;
72422;SDS011;60413;55.658;37.498;2022-12-19T18:49:04;17.00;;;5.60;;
72422;SDS011;60413;55.658;37.498;2022-12-19T18:51:33;11.18;;;5.05;;
72422;SDS011;60413;55.658;37.498;2022-12-19T18:54:04;15.73;;;5.70;;
72422;SDS011;60413;55.658;37.498;2022-12-19T18:57:11;13.75;;;5.18;;
72422;SDS011;60413;55.658;37.498;2022-12-19T18:59:57;12.43;;;5.50;;
72422;SDS011;60413;55.658;37.498;2022-12-19T19:02:52;15.93;;;5.70;;
72422;SDS011;60413;55.658;37.498;2022-12-19T19:05:28;15.70;;;5.93;;
72422;SDS011;60413;55.658;37.498;2022-12-19T19:11:07;13.05;;;5.38;;